sensor_id;sensor_type;location;lat;lon;timestamp;temperature;humidity
18229;DHT22;9239;50.932;3.142;2023-03-04T00:02:14;6.00;99.90
18229;DHT22;9239;50.932;3.142;2023-03-04T00:04:41;6.00;99.90
18229;DHT22;9239;50.932;3.142;2023-03-04T00:07:08;6.10;99.90
18229;DHT22;9239;50.932;3.142;2023-03-04T00:09:35;6.10;99.90
18229;DHT22;9239;50.932;3.142;2023-03-04T00:12:02;6.10;99.90
18229;DHT22;9239;50.932;3.142;2023-03-04T00:14:29;6.10;99.90
18229;DHT22;9239;50.932;3.142;2023-03-04T00:16:57;6.10;99.90
18229;DHT22;9239;50.932;3.142;2023-03-04T00:19:24;6.10;99.90
18229;DHT22;9239;50.932;3.142;2023-03-04T00:21:51;6.10;99.90
18229;DHT22;9239;50.932;3.142;2023-03-04T00:24:18;6.10;99.90
18229;DHT22;9239;50.932;3.142;2023-03-04T00:26:44;6.10;99.90
18229;DHT22;9239;50.932;3.142;2023-03-04T00:29:11;6.10;99.90
18229;DHT22;9239;50.932;3.142;2023-03-04T00:31:38;6.20;99.90
18229;DHT22;9239;50.932;3.142;2023-03-04T00:34:06;6.10;99.90
18229;DHT22;9239;50.932;3.142;2023-03-04T00:36:33;6.10;99.90
18229;DHT22;9239;50.932;3.142;2023-03-04T00:39:00;6.00;99.90
18229;DHT22;9239;50.932;3.142;2023-03-04T00:41:27;6.00;99.90
18229;DHT22;9239;50.932;3.142;2023-03-04T00:43:54;6.00;99.90
18229;DHT22;9239;50.932;3.142;2023-03-04T00:46:20;6.00;99.90
18229;DHT22;9239;50.932;3.142;2023-03-04T00:48:47;6.00;99.90
18229;DHT22;9239;50.932;3.142;2023-03-04T00:51:15;6.00;99.90
18229;DHT22;9239;50.932;3.142;2023-03-04T00:53:42;6.00;99.90
18229;DHT22;9239;50.932;3.142;2023-03-04T00:56:09;6.00;99.90
18229;DHT22;9239;50.932;3.142;2023-03-04T00:58:36;6.10;99.90
18229;DHT22;9239;50.932;3.142;2023-03-04T01:01:04;6.10;99.90
18229;DHT22;9239;50.932;3.142;2023-03-04T01:03:31;6.20;99.90
18229;DHT22;9239;50.932;3.142;2023-03-04T01:05:58;6.20;99.90
18229;DHT22;9239;50.932;3.142;2023-03-04T01:08:26;6.20;99.90
18229;DHT22;9239;50.932;3.142;2023-03-04T01:10:53;6.20;99.90
18229;DHT22;9239;50.932;3.142;2023-03-04T01:13:20;6.30;99.90
18229;DHT22;9239;50.932;3.142;2023-03-04T01:15:47;6.20;99.90
18229;DHT22;9239;50.932;3.142;2023-03-04T01:18:13;6.20;99.90
18229;DHT22;9239;50.932;3.142;2023-03-04T01:20:40;6.20;99.90
18229;DHT22;9239;50.932;3.142;2023-03-04T01:23:07;6.20;99.90
18229;DHT22;9239;50.932;3.142;2023-03-04T01:25:35;6.20;99.90
18229;DHT22;9239;50.932;3.142;2023-03-04T01:28:02;6.20;99.90
18229;DHT22;9239;50.932;3.142;2023-03-04T01:30:29;6.20;99.90
18229;DHT22;9239;50.932;3.142;2023-03-04T01:32:56;6.20;99.90
18229;DHT22;9239;50.932;3.142;2023-03-04T01:35:23;6.20;99.90
18229;DHT22;9239;50.932;3.142;2023-03-04T01:37:50;6.10;99.90
18229;DHT22;9239;50.932;3.142;2023-03-04T01:40:17;6.10;99.90
18229;DHT22;9239;50.932;3.142;2023-03-04T01:42:46;6.20;99.90
18229;DHT22;9239;50.932;3.142;2023-03-04T01:45:14;6.20;99.90
18229;DHT22;9239;50.932;3.142;2023-03-04T01:47:43;6.20;99.90
18229;DHT22;9239;50.932;3.142;2023-03-04T01:50:18;6.20;99.90
18229;DHT22;9239;50.932;3.142;2023-03-04T01:52:46;6.10;99.90
18229;DHT22;9239;50.932;3.142;2023-03-04T01:55:18;6.20;99.90
18229;DHT22;9239;50.932;3.142;2023-03-04T01:57:47;6.10;99.90
18229;DHT22;9239;50.932;3.142;2023-03-04T02:00:22;6.10;99.90
18229;DHT22;9239;50.932;3.142;2023-03-04T02:02:51;6.10;99.90
18229;DHT22;9239;50.932;3.142;2023-03-04T02:05:19;6.10;99.90
18229;DHT22;9239;50.932;3.142;2023-03-04T02:07:47;6.10;99.90
18229;DHT22;9239;50.932;3.142;2023-03-04T02:10:14;6.00;99.90
18229;DHT22;9239;50.932;3.142;2023-03-04T02:12:41;6.10;99.90
18229;DHT22;9239;50.932;3.142;2023-03-04T02:15:10;6.10;99.90
18229;DHT22;9239;50.932;3.142;2023-03-04T02:17:38;6.10;99.90
18229;DHT22;9239;50.932;3.142;2023-03-04T02:20:12;6.00;99.90
18229;DHT22;9239;50.932;3.142;2023-03-04T02:22:45;6.10;99.90
18229;DHT22;9239;50.932;3.142;2023-03-04T02:25:17;6.10;99.90
18229;DHT22;9239;50.932;3.142;2023-03-04T02:27:47;6.10;99.90
18229;DHT22;9239;50.932;3.142;2023-03-04T02:30:16;6.20;99.90
18229;DHT22;9239;50.932;3.142;2023-03-04T02:32:43;6.20;99.90
18229;DHT22;9239;50.932;3.142;2023-03-04T02:35:15;6.20;99.90
18229;DHT22;9239;50.932;3.142;2023-03-04T02:37:43;6.20;99.90
18229;DHT22;9239;50.932;3.142;2023-03-04T02:40:14;6.20;99.90
18229;DHT22;9239;50.932;3.142;2023-03-04T02:42:43;6.10;99.90
18229;DHT22;9239;50.932;3.142;2023-03-04T02:45:35;6.10;99.90
18229;DHT22;9239;50.932;3.142;2023-03-04T02:48:02;6.20;99.90
18229;DHT22;9239;50.932;3.142;2023-03-04T02:50:34;6.20;99.90
18229;DHT22;9239;50.932;3.142;2023-03-04T02:53:02;6.10;99.90
18229;DHT22;9239;50.932;3.142;2023-03-04T02:55:29;6.20;99.90
18229;DHT22;9239;50.932;3.142;2023-03-04T02:57:57;6.20;99.90
18229;DHT22;9239;50.932;3.142;2023-03-04T03:00:24;6.20;99.90
18229;DHT22;9239;50.932;3.142;2023-03-04T03:02:52;6.20;99.90
18229;DHT22;9239;50.932;3.142;2023-03-04T03:05:22;6.20;99.90
18229;DHT22;9239;50.932;3.142;2023-03-04T03:07:49;6.20;99.90
18229;DHT22;9239;50.932;3.142;2023-03-04T03:10:16;6.20;99.90
18229;DHT22;9239;50.932;3.142;2023-03-04T03:12:43;6.20;99.90
18229;DHT22;9239;50.932;3.142;2023-03-04T03:15:10;6.20;99.90
18229;DHT22;9239;50.932;3.142;2023-03-04T03:17:37;6.20;99.90
18229;DHT22;9239;50.932;3.142;2023-03-04T03:20:12;6.20;99.90
18229;DHT22;9239;50.932;3.142;2023-03-04T03:22:40;6.20;99.90
18229;DHT22;9239;50.932;3.142;2023-03-04T03:25:09;6.20;99.90
18229;DHT22;9239;50.932;3.142;2023-03-04T03:27:36;6.20;99.90
18229;DHT22;9239;50.932;3.142;2023-03-04T03:30:05;6.20;99.90
18229;DHT22;9239;50.932;3.142;2023-03-04T03:32:32;6.10;99.90
18229;DHT22;9239;50.932;3.142;2023-03-04T03:34:59;6.10;99.90
18229;DHT22;9239;50.932;3.142;2023-03-04T03:37:27;6.20;99.90
18229;DHT22;9239;50.932;3.142;2023-03-04T03:39:54;6.30;99.90
18229;DHT22;9239;50.932;3.142;2023-03-04T03:42:21;6.20;99.90
18229;DHT22;9239;50.932;3.142;2023-03-04T03:44:48;6.30;99.90
18229;DHT22;9239;50.932;3.142;2023-03-04T03:47:15;6.20;99.90
18229;DHT22;9239;50.932;3.142;2023-03-04T03:49:42;6.30;99.90
18229;DHT22;9239;50.932;3.142;2023-03-04T03:52:09;6.30;99.90
18229;DHT22;9239;50.932;3.142;2023-03-04T03:54:38;6.20;99.90
18229;DHT22;9239;50.932;3.142;2023-03-04T03:57:04;6.20;99.90
18229;DHT22;9239;50.932;3.142;2023-03-04T03:59:31;6.20;99.90
18229;DHT22;9239;50.932;3.142;2023-03-04T04:01:58;6.20;99.90
18229;DHT22;9239;50.932;3.142;2023-03-04T04:04:25;6.20;99.90
18229;DHT22;9239;50.932;3.142;2023-03-04T04:06:52;6.20;99.90
18229;DHT22;9239;50.932;3.142;2023-03-04T04:09:19;6.30;99.90
18229;DHT22;9239;50.932;3.142;2023-03-04T04:11:47;6.30;99.90
18229;DHT22;9239;50.932;3.142;2023-03-04T04:14:15;6.30;99.90
18229;DHT22;9239;50.932;3.142;2023-03-04T04:16:41;6.30;99.90
18229;DHT22;9239;50.932;3.142;2023-03-04T04:19:14;6.20;99.90
18229;DHT22;9239;50.932;3.142;2023-03-04T04:21:42;6.30;99.90
18229;DHT22;9239;50.932;3.142;2023-03-04T04:24:08;6.20;99.90
18229;DHT22;9239;50.932;3.142;2023-03-04T04:26:35;6.30;99.90
18229;DHT22;9239;50.932;3.142;2023-03-04T04:29:04;6.30;99.90
18229;DHT22;9239;50.932;3.142;2023-03-04T04:31:31;6.30;99.90
18229;DHT22;9239;50.932;3.142;2023-03-04T04:33:58;6.30;99.90
18229;DHT22;9239;50.932;3.142;2023-03-04T04:36:26;6.30;99.90
18229;DHT22;9239;50.932;3.142;2023-03-04T04:38:53;6.30;99.90
18229;DHT22;9239;50.932;3.142;2023-03-04T04:41:22;6.30;99.90
18229;DHT22;9239;50.932;3.142;2023-03-04T04:43:49;6.30;99.90
18229;DHT22;9239;50.932;3.142;2023-03-04T04:46:18;6.30;99.90
18229;DHT22;9239;50.932;3.142;2023-03-04T04:48:45;6.30;99.90
18229;DHT22;9239;50.932;3.142;2023-03-04T04:51:12;6.30;99.90
18229;DHT22;9239;50.932;3.142;2023-03-04T04:53:39;6.30;99.90
18229;DHT22;9239;50.932;3.142;2023-03-04T04:56:10;6.30;99.90
18229;DHT22;9239;50.932;3.142;2023-03-04T04:58:38;6.20;99.90
18229;DHT22;9239;50.932;3.142;2023-03-04T05:01:05;6.30;99.90
18229;DHT22;9239;50.932;3.142;2023-03-04T05:03:34;6.30;99.90
18229;DHT22;9239;50.932;3.142;2023-03-04T05:06:03;6.40;99.90
18229;DHT22;9239;50.932;3.142;2023-03-04T05:08:31;6.30;99.90
18229;DHT22;9239;50.932;3.142;2023-03-04T05:10:58;6.30;99.90
18229;DHT22;9239;50.932;3.142;2023-03-04T05:13:25;6.30;99.90
18229;DHT22;9239;50.932;3.142;2023-03-04T05:15:52;6.30;99.90
18229;DHT22;9239;50.932;3.142;2023-03-04T05:18:19;6.30;99.90
18229;DHT22;9239;50.932;3.142;2023-03-04T05:20:50;6.30;99.90
18229;DHT22;9239;50.932;3.142;2023-03-04T05:23:18;6.30;99.90
18229;DHT22;9239;50.932;3.142;2023-03-04T05:25:45;6.30;99.90
18229;DHT22;9239;50.932;3.142;2023-03-04T05:28:12;6.30;99.90
18229;DHT22;9239;50.932;3.142;2023-03-04T05:30:39;6.40;99.90
18229;DHT22;9239;50.932;3.142;2023-03-04T05:33:07;6.40;99.90
18229;DHT22;9239;50.932;3.142;2023-03-04T05:35:34;6.40;99.90
18229;DHT22;9239;50.932;3.142;2023-03-04T05:38:03;6.30;99.90
18229;DHT22;9239;50.932;3.142;2023-03-04T05:40:31;6.30;99.90
18229;DHT22;9239;50.932;3.142;2023-03-04T05:42:58;6.40;99.90
18229;DHT22;9239;50.932;3.142;2023-03-04T05:45:26;6.30;99.90
18229;DHT22;9239;50.932;3.142;2023-03-04T05:47:53;6.30;99.90
18229;DHT22;9239;50.932;3.142;2023-03-04T05:50:21;6.30;99.90
18229;DHT22;9239;50.932;3.142;2023-03-04T05:52:49;6.30;99.90
18229;DHT22;9239;50.932;3.142;2023-03-04T05:55:17;6.40;99.90
18229;DHT22;9239;50.932;3.142;2023-03-04T05:57:44;6.40;99.90
18229;DHT22;9239;50.932;3.142;2023-03-04T06:00:13;6.30;99.90
18229;DHT22;9239;50.932;3.142;2023-03-04T06:02:41;6.40;99.90
18229;DHT22;9239;50.932;3.142;2023-03-04T06:05:09;6.30;99.90
18229;DHT22;9239;50.932;3.142;2023-03-04T06:07:36;6.30;99.90
18229;DHT22;9239;50.932;3.142;2023-03-04T06:10:04;6.40;99.90
18229;DHT22;9239;50.932;3.142;2023-03-04T06:12:32;6.40;99.90
18229;DHT22;9239;50.932;3.142;2023-03-04T06:14:59;6.40;99.90
18229;DHT22;9239;50.932;3.142;2023-03-04T06:17:27;6.40;99.90
18229;DHT22;9239;50.932;3.142;2023-03-04T06:19:54;6.30;99.90
18229;DHT22;9239;50.932;3.142;2023-03-04T06:22:21;6.30;99.90
18229;DHT22;9239;50.932;3.142;2023-03-04T06:24:48;6.30;99.90
18229;DHT22;9239;50.932;3.142;2023-03-04T06:27:15;6.30;99.90
18229;DHT22;9239;50.932;3.142;2023-03-04T06:29:43;6.30;99.90
18229;DHT22;9239;50.932;3.142;2023-03-04T06:32:10;6.30;99.90
18229;DHT22;9239;50.932;3.142;2023-03-04T06:34:37;6.30;99.90
18229;DHT22;9239;50.932;3.142;2023-03-04T06:37:04;6.30;99.90
18229;DHT22;9239;50.932;3.142;2023-03-04T06:39:31;6.30;99.90
18229;DHT22;9239;50.932;3.142;2023-03-04T06:41:58;6.30;99.90
18229;DHT22;9239;50.932;3.142;2023-03-04T06:44:25;6.20;99.90
18229;DHT22;9239;50.932;3.142;2023-03-04T06:46:53;6.10;99.90
18229;DHT22;9239;50.932;3.142;2023-03-04T06:49:20;6.00;99.90
18229;DHT22;9239;50.932;3.142;2023-03-04T06:51:47;6.00;99.90
18229;DHT22;9239;50.932;3.142;2023-03-04T06:54:14;5.90;99.90
18229;DHT22;9239;50.932;3.142;2023-03-04T06:56:41;6.00;99.90
18229;DHT22;9239;50.932;3.142;2023-03-04T06:59:08;6.00;99.90
18229;DHT22;9239;50.932;3.142;2023-03-04T07:01:35;6.00;99.90
18229;DHT22;9239;50.932;3.142;2023-03-04T07:04:04;6.00;99.90
18229;DHT22;9239;50.932;3.142;2023-03-04T07:06:31;6.00;99.90
18229;DHT22;9239;50.932;3.142;2023-03-04T07:08:58;5.90;99.90
18229;DHT22;9239;50.932;3.142;2023-03-04T07:11:25;5.90;99.90
18229;DHT22;9239;50.932;3.142;2023-03-04T07:13:52;5.90;99.90
18229;DHT22;9239;50.932;3.142;2023-03-04T07:16:21;5.90;99.90
18229;DHT22;9239;50.932;3.142;2023-03-04T07:18:49;6.00;99.90
18229;DHT22;9239;50.932;3.142;2023-03-04T07:21:17;6.00;99.90
18229;DHT22;9239;50.932;3.142;2023-03-04T07:23:45;6.00;99.90
18229;DHT22;9239;50.932;3.142;2023-03-04T07:26:12;6.00;99.90
18229;DHT22;9239;50.932;3.142;2023-03-04T07:28:39;6.20;99.90
18229;DHT22;9239;50.932;3.142;2023-03-04T07:31:09;6.20;99.90
18229;DHT22;9239;50.932;3.142;2023-03-04T07:33:36;6.20;99.90
18229;DHT22;9239;50.932;3.142;2023-03-04T07:36:03;6.20;99.90
18229;DHT22;9239;50.932;3.142;2023-03-04T07:38:32;6.30;99.90
18229;DHT22;9239;50.932;3.142;2023-03-04T07:40:59;6.30;99.90
18229;DHT22;9239;50.932;3.142;2023-03-04T07:43:26;6.30;99.90
18229;DHT22;9239;50.932;3.142;2023-03-04T07:45:58;6.20;99.90
18229;DHT22;9239;50.932;3.142;2023-03-04T07:48:26;6.00;99.90
18229;DHT22;9239;50.932;3.142;2023-03-04T07:51:03;5.90;99.90
18229;DHT22;9239;50.932;3.142;2023-03-04T07:53:32;5.80;99.90
18229;DHT22;9239;50.932;3.142;2023-03-04T07:55:59;5.80;99.90
18229;DHT22;9239;50.932;3.142;2023-03-04T07:58:26;5.80;99.90
18229;DHT22;9239;50.932;3.142;2023-03-04T08:00:53;5.80;99.90
18229;DHT22;9239;50.932;3.142;2023-03-04T08:03:20;5.80;99.90
18229;DHT22;9239;50.932;3.142;2023-03-04T08:05:47;5.90;99.90
18229;DHT22;9239;50.932;3.142;2023-03-04T08:08:14;6.00;99.90
18229;DHT22;9239;50.932;3.142;2023-03-04T08:10:42;5.90;99.90
18229;DHT22;9239;50.932;3.142;2023-03-04T08:13:10;6.10;99.90
18229;DHT22;9239;50.932;3.142;2023-03-04T08:15:51;6.30;99.90
18229;DHT22;9239;50.932;3.142;2023-03-04T08:21:33;6.50;99.90
18229;DHT22;9239;50.932;3.142;2023-03-04T08:24:03;6.60;99.90
18229;DHT22;9239;50.932;3.142;2023-03-04T08:26:35;6.70;99.90
18229;DHT22;9239;50.932;3.142;2023-03-04T08:29:06;6.80;99.90
18229;DHT22;9239;50.932;3.142;2023-03-04T08:31:34;7.00;99.90
18229;DHT22;9239;50.932;3.142;2023-03-04T08:34:01;6.90;99.90
18229;DHT22;9239;50.932;3.142;2023-03-04T08:36:28;6.90;99.90
18229;DHT22;9239;50.932;3.142;2023-03-04T08:38:55;6.90;99.90
18229;DHT22;9239;50.932;3.142;2023-03-04T08:41:22;6.80;99.90
18229;DHT22;9239;50.932;3.142;2023-03-04T08:43:52;6.90;99.90
18229;DHT22;9239;50.932;3.142;2023-03-04T08:46:19;6.90;99.90
18229;DHT22;9239;50.932;3.142;2023-03-04T08:48:45;6.90;99.90
18229;DHT22;9239;50.932;3.142;2023-03-04T08:51:13;7.00;99.90
18229;DHT22;9239;50.932;3.142;2023-03-04T08:53:41;7.20;99.90
18229;DHT22;9239;50.932;3.142;2023-03-04T08:56:12;7.20;99.90
18229;DHT22;9239;50.932;3.142;2023-03-04T08:58:39;7.30;99.90
18229;DHT22;9239;50.932;3.142;2023-03-04T09:01:09;7.40;99.90
18229;DHT22;9239;50.932;3.142;2023-03-04T09:03:37;7.40;99.90
18229;DHT22;9239;50.932;3.142;2023-03-04T09:06:05;7.40;99.90
18229;DHT22;9239;50.932;3.142;2023-03-04T09:08:33;7.50;99.90
18229;DHT22;9239;50.932;3.142;2023-03-04T09:11:00;7.50;99.90
18229;DHT22;9239;50.932;3.142;2023-03-04T09:13:28;7.40;99.90
18229;DHT22;9239;50.932;3.142;2023-03-04T09:15:57;7.20;99.90
18229;DHT22;9239;50.932;3.142;2023-03-04T09:18:26;7.10;99.90
18229;DHT22;9239;50.932;3.142;2023-03-04T09:20:53;7.00;99.90
18229;DHT22;9239;50.932;3.142;2023-03-04T09:23:21;6.80;99.90
18229;DHT22;9239;50.932;3.142;2023-03-04T09:25:48;6.70;99.90
18229;DHT22;9239;50.932;3.142;2023-03-04T09:28:16;6.70;99.90
18229;DHT22;9239;50.932;3.142;2023-03-04T09:30:43;6.70;99.90
18229;DHT22;9239;50.932;3.142;2023-03-04T09:33:11;6.70;99.90
18229;DHT22;9239;50.932;3.142;2023-03-04T09:35:39;6.60;99.90
18229;DHT22;9239;50.932;3.142;2023-03-04T09:38:06;6.70;99.90
18229;DHT22;9239;50.932;3.142;2023-03-04T09:40:38;6.70;99.90
18229;DHT22;9239;50.932;3.142;2023-03-04T09:43:10;6.90;99.90
18229;DHT22;9239;50.932;3.142;2023-03-04T09:45:42;6.90;99.90
18229;DHT22;9239;50.932;3.142;2023-03-04T09:48:14;7.10;99.90
18229;DHT22;9239;50.932;3.142;2023-03-04T09:50:51;7.30;99.90
18229;DHT22;9239;50.932;3.142;2023-03-04T09:53:22;7.50;99.90
18229;DHT22;9239;50.932;3.142;2023-03-04T09:55:51;7.50;99.90
18229;DHT22;9239;50.932;3.142;2023-03-04T09:58:29;7.60;99.90
18229;DHT22;9239;50.932;3.142;2023-03-04T10:01:00;7.70;99.90
18229;DHT22;9239;50.932;3.142;2023-03-04T10:03:35;7.70;99.90
18229;DHT22;9239;50.932;3.142;2023-03-04T10:06:10;7.60;99.90
18229;DHT22;9239;50.932;3.142;2023-03-04T10:08:41;7.70;99.90
18229;DHT22;9239;50.932;3.142;2023-03-04T10:11:14;7.50;99.90
18229;DHT22;9239;50.932;3.142;2023-03-04T10:13:53;7.40;99.90
18229;DHT22;9239;50.932;3.142;2023-03-04T10:16:24;7.40;99.90
18229;DHT22;9239;50.932;3.142;2023-03-04T10:18:55;7.40;99.90
18229;DHT22;9239;50.932;3.142;2023-03-04T10:21:29;7.40;99.90
18229;DHT22;9239;50.932;3.142;2023-03-04T10:23:59;7.30;99.90
18229;DHT22;9239;50.932;3.142;2023-03-04T10:26:33;7.30;99.90
18229;DHT22;9239;50.932;3.142;2023-03-04T10:29:00;7.30;99.90
18229;DHT22;9239;50.932;3.142;2023-03-04T10:31:33;7.40;99.90
18229;DHT22;9239;50.932;3.142;2023-03-04T10:34:03;7.60;99.90
18229;DHT22;9239;50.932;3.142;2023-03-04T10:36:43;7.70;99.90
18229;DHT22;9239;50.932;3.142;2023-03-04T10:39:18;7.90;99.90
18229;DHT22;9239;50.932;3.142;2023-03-04T10:41:54;7.90;99.90
18229;DHT22;9239;50.932;3.142;2023-03-04T10:44:23;7.90;99.90
18229;DHT22;9239;50.932;3.142;2023-03-04T10:46:52;7.90;99.90
18229;DHT22;9239;50.932;3.142;2023-03-04T10:49:20;8.10;99.90
18229;DHT22;9239;50.932;3.142;2023-03-04T10:51:51;8.40;99.90
18229;DHT22;9239;50.932;3.142;2023-03-04T10:54:26;8.40;99.90
18229;DHT22;9239;50.932;3.142;2023-03-04T10:56:56;8.40;99.90
18229;DHT22;9239;50.932;3.142;2023-03-04T10:59:33;8.30;99.90
18229;DHT22;9239;50.932;3.142;2023-03-04T11:02:13;8.20;99.90
18229;DHT22;9239;50.932;3.142;2023-03-04T11:04:40;8.00;99.90
18229;DHT22;9239;50.932;3.142;2023-03-04T11:07:10;7.90;99.90
18229;DHT22;9239;50.932;3.142;2023-03-04T11:09:37;7.90;99.90
18229;DHT22;9239;50.932;3.142;2023-03-04T11:12:10;7.90;99.90
18229;DHT22;9239;50.932;3.142;2023-03-04T11:14:39;8.00;99.90
18229;DHT22;9239;50.932;3.142;2023-03-04T11:17:18;8.00;99.90
18229;DHT22;9239;50.932;3.142;2023-03-04T11:19:47;7.90;99.90
18229;DHT22;9239;50.932;3.142;2023-03-04T11:22:19;7.90;99.90
18229;DHT22;9239;50.932;3.142;2023-03-04T11:24:55;8.10;99.90
18229;DHT22;9239;50.932;3.142;2023-03-04T11:27:28;8.40;99.90
18229;DHT22;9239;50.932;3.142;2023-03-04T11:30:00;8.70;99.90
18229;DHT22;9239;50.932;3.142;2023-03-04T11:32:31;9.00;99.90
18229;DHT22;9239;50.932;3.142;2023-03-04T11:35:07;9.30;99.90
18229;DHT22;9239;50.932;3.142;2023-03-04T11:37:47;9.30;99.90
18229;DHT22;9239;50.932;3.142;2023-03-04T11:40:22;9.30;99.90
18229;DHT22;9239;50.932;3.142;2023-03-04T11:42:54;9.40;99.90
18229;DHT22;9239;50.932;3.142;2023-03-04T11:45:27;9.40;99.90
18229;DHT22;9239;50.932;3.142;2023-03-04T11:48:03;9.30;99.90
18229;DHT22;9239;50.932;3.142;2023-03-04T11:50:41;9.30;99.90
18229;DHT22;9239;50.932;3.142;2023-03-04T11:53:24;9.30;99.90
18229;DHT22;9239;50.932;3.142;2023-03-04T11:56:07;9.30;99.90
18229;DHT22;9239;50.932;3.142;2023-03-04T11:58:56;9.10;99.90
18229;DHT22;9239;50.932;3.142;2023-03-04T12:01:33;8.80;99.90
18229;DHT22;9239;50.932;3.142;2023-03-04T12:04:16;8.80;99.90
18229;DHT22;9239;50.932;3.142;2023-03-04T12:06:59;8.80;99.90
18229;DHT22;9239;50.932;3.142;2023-03-04T12:09:41;9.00;99.90
18229;DHT22;9239;50.932;3.142;2023-03-04T12:12:34;9.10;99.90
18229;DHT22;9239;50.932;3.142;2023-03-04T12:15:16;9.30;99.90
18229;DHT22;9239;50.932;3.142;2023-03-04T12:18:11;9.30;99.90
18229;DHT22;9239;50.932;3.142;2023-03-04T12:21:00;9.30;99.90
18229;DHT22;9239;50.932;3.142;2023-03-04T12:23:42;9.40;99.90
18229;DHT22;9239;50.932;3.142;2023-03-04T12:26:23;9.50;99.90
18229;DHT22;9239;50.932;3.142;2023-03-04T12:28:56;9.70;99.90
18229;DHT22;9239;50.932;3.142;2023-03-04T12:31:34;9.60;99.90
18229;DHT22;9239;50.932;3.142;2023-03-04T12:34:29;9.60;99.90
18229;DHT22;9239;50.932;3.142;2023-03-04T12:37:07;9.60;99.90
18229;DHT22;9239;50.932;3.142;2023-03-04T12:39:39;9.70;99.90
18229;DHT22;9239;50.932;3.142;2023-03-04T12:42:19;9.80;99.90
18229;DHT22;9239;50.932;3.142;2023-03-04T12:44:55;9.70;99.90
18229;DHT22;9239;50.932;3.142;2023-03-04T12:47:29;9.40;99.90
18229;DHT22;9239;50.932;3.142;2023-03-04T12:50:23;9.20;99.90
18229;DHT22;9239;50.932;3.142;2023-03-04T12:52:58;9.00;99.90
18229;DHT22;9239;50.932;3.142;2023-03-04T12:55:34;8.80;99.90
18229;DHT22;9239;50.932;3.142;2023-03-04T12:58:04;8.70;99.90
18229;DHT22;9239;50.932;3.142;2023-03-04T13:00:44;8.80;99.90
18229;DHT22;9239;50.932;3.142;2023-03-04T13:03:17;8.80;99.90
18229;DHT22;9239;50.932;3.142;2023-03-04T13:06:04;9.00;99.90
18229;DHT22;9239;50.932;3.142;2023-03-04T13:08:42;9.30;99.90
18229;DHT22;9239;50.932;3.142;2023-03-04T13:14:35;9.10;99.90
18229;DHT22;9239;50.932;3.142;2023-03-04T13:22:55;8.50;99.90
18229;DHT22;9239;50.932;3.142;2023-03-04T13:25:44;8.50;99.90
18229;DHT22;9239;50.932;3.142;2023-03-04T13:28:26;8.20;99.90
18229;DHT22;9239;50.932;3.142;2023-03-04T13:31:21;8.10;99.90
18229;DHT22;9239;50.932;3.142;2023-03-04T13:34:00;8.00;99.90
18229;DHT22;9239;50.932;3.142;2023-03-04T13:36:30;8.00;99.90
18229;DHT22;9239;50.932;3.142;2023-03-04T13:38:59;8.00;99.90
18229;DHT22;9239;50.932;3.142;2023-03-04T13:41:30;8.10;99.90
18229;DHT22;9239;50.932;3.142;2023-03-04T13:43:59;8.20;99.90
18229;DHT22;9239;50.932;3.142;2023-03-04T13:46:40;8.30;99.90
18229;DHT22;9239;50.932;3.142;2023-03-04T13:49:17;8.40;99.90
18229;DHT22;9239;50.932;3.142;2023-03-04T13:51:45;8.40;99.90
18229;DHT22;9239;50.932;3.142;2023-03-04T13:54:13;8.40;99.90
18229;DHT22;9239;50.932;3.142;2023-03-04T13:56:42;8.40;99.90
18229;DHT22;9239;50.932;3.142;2023-03-04T13:59:25;8.50;99.90
18229;DHT22;9239;50.932;3.142;2023-03-04T14:02:12;8.60;99.90
18229;DHT22;9239;50.932;3.142;2023-03-04T14:04:43;8.70;99.90
18229;DHT22;9239;50.932;3.142;2023-03-04T14:07:23;8.70;99.90
18229;DHT22;9239;50.932;3.142;2023-03-04T14:09:56;8.80;99.90
18229;DHT22;9239;50.932;3.142;2023-03-04T14:12:25;8.70;99.90
18229;DHT22;9239;50.932;3.142;2023-03-04T14:14:55;8.70;99.90
18229;DHT22;9239;50.932;3.142;2023-03-04T14:17:26;8.60;99.90
18229;DHT22;9239;50.932;3.142;2023-03-04T14:19:53;8.50;99.90
18229;DHT22;9239;50.932;3.142;2023-03-04T14:22:24;8.50;99.90
18229;DHT22;9239;50.932;3.142;2023-03-04T14:24:59;8.50;99.90
18229;DHT22;9239;50.932;3.142;2023-03-04T14:27:26;8.30;99.90
18229;DHT22;9239;50.932;3.142;2023-03-04T14:29:57;8.40;99.90
18229;DHT22;9239;50.932;3.142;2023-03-04T14:32:27;8.40;99.90
18229;DHT22;9239;50.932;3.142;2023-03-04T14:34:57;8.40;99.90
18229;DHT22;9239;50.932;3.142;2023-03-04T14:37:26;8.40;99.90
18229;DHT22;9239;50.932;3.142;2023-03-04T14:39:58;8.20;99.90
18229;DHT22;9239;50.932;3.142;2023-03-04T14:42:32;8.10;99.90
18229;DHT22;9239;50.932;3.142;2023-03-04T14:45:01;8.10;99.90
18229;DHT22;9239;50.932;3.142;2023-03-04T14:47:33;8.10;99.90
18229;DHT22;9239;50.932;3.142;2023-03-04T14:50:04;8.20;99.90
18229;DHT22;9239;50.932;3.142;2023-03-04T14:52:35;8.30;99.90
18229;DHT22;9239;50.932;3.142;2023-03-04T14:55:16;8.40;99.90
18229;DHT22;9239;50.932;3.142;2023-03-04T14:57:48;8.50;99.90
18229;DHT22;9239;50.932;3.142;2023-03-04T15:00:28;8.60;99.90
18229;DHT22;9239;50.932;3.142;2023-03-04T15:02:58;8.60;99.90
18229;DHT22;9239;50.932;3.142;2023-03-04T15:05:27;8.50;99.90
18229;DHT22;9239;50.932;3.142;2023-03-04T15:07:56;8.50;99.90
18229;DHT22;9239;50.932;3.142;2023-03-04T15:10:25;8.40;99.90
18229;DHT22;9239;50.932;3.142;2023-03-04T15:12:53;8.50;99.90
18229;DHT22;9239;50.932;3.142;2023-03-04T15:15:34;8.50;99.90
18229;DHT22;9239;50.932;3.142;2023-03-04T15:18:12;8.50;99.90
18229;DHT22;9239;50.932;3.142;2023-03-04T15:20:39;8.50;99.90
18229;DHT22;9239;50.932;3.142;2023-03-04T15:23:07;8.60;99.90
18229;DHT22;9239;50.932;3.142;2023-03-04T15:25:39;8.60;99.90
18229;DHT22;9239;50.932;3.142;2023-03-04T15:28:14;8.60;99.90
18229;DHT22;9239;50.932;3.142;2023-03-04T15:30:42;8.60;99.90
18229;DHT22;9239;50.932;3.142;2023-03-04T15:33:11;8.50;99.90
18229;DHT22;9239;50.932;3.142;2023-03-04T15:35:40;8.50;99.90
18229;DHT22;9239;50.932;3.142;2023-03-04T15:38:10;8.50;99.90
18229;DHT22;9239;50.932;3.142;2023-03-04T15:40:39;8.40;99.90
18229;DHT22;9239;50.932;3.142;2023-03-04T15:43:10;8.30;99.90
18229;DHT22;9239;50.932;3.142;2023-03-04T15:45:38;8.30;99.90
18229;DHT22;9239;50.932;3.142;2023-03-04T15:48:08;8.40;99.90
18229;DHT22;9239;50.932;3.142;2023-03-04T15:50:39;8.30;99.90
18229;DHT22;9239;50.932;3.142;2023-03-04T15:53:11;8.30;99.90
18229;DHT22;9239;50.932;3.142;2023-03-04T15:55:38;8.30;99.90
18229;DHT22;9239;50.932;3.142;2023-03-04T15:58:05;8.20;99.90
18229;DHT22;9239;50.932;3.142;2023-03-04T16:00:32;8.20;99.90
18229;DHT22;9239;50.932;3.142;2023-03-04T16:02:59;8.20;99.90
18229;DHT22;9239;50.932;3.142;2023-03-04T16:05:26;8.10;99.90
18229;DHT22;9239;50.932;3.142;2023-03-04T16:07:54;8.00;99.90
18229;DHT22;9239;50.932;3.142;2023-03-04T16:10:24;8.00;99.90
18229;DHT22;9239;50.932;3.142;2023-03-04T16:12:52;7.90;99.90
18229;DHT22;9239;50.932;3.142;2023-03-04T16:15:21;8.00;99.90
18229;DHT22;9239;50.932;3.142;2023-03-04T16:17:48;8.00;99.90
18229;DHT22;9239;50.932;3.142;2023-03-04T16:20:17;8.10;99.90
18229;DHT22;9239;50.932;3.142;2023-03-04T16:22:47;8.10;99.90
18229;DHT22;9239;50.932;3.142;2023-03-04T16:25:16;8.00;99.90
18229;DHT22;9239;50.932;3.142;2023-03-04T16:27:44;8.00;99.90
18229;DHT22;9239;50.932;3.142;2023-03-04T16:30:13;7.90;99.90
18229;DHT22;9239;50.932;3.142;2023-03-04T16:32:41;7.90;99.90
18229;DHT22;9239;50.932;3.142;2023-03-04T16:35:08;7.90;99.90